sensor_id;sensor_type;location;lat;lon;timestamp;temperature;humidity
30534;DHT22;17318;52.390;9.754;2023-05-10T00:02:06;16.50;62.40
30534;DHT22;17318;52.390;9.754;2023-05-10T00:04:32;16.60;62.60
30534;DHT22;17318;52.390;9.754;2023-05-10T00:06:58;16.50;62.90
30534;DHT22;17318;52.390;9.754;2023-05-10T00:09:23;16.60;63.10
30534;DHT22;17318;52.390;9.754;2023-05-10T00:11:49;16.50;62.80
30534;DHT22;17318;52.390;9.754;2023-05-10T00:14:15;16.50;63.50
30534;DHT22;17318;52.390;9.754;2023-05-10T00:16:41;16.50;63.90
30534;DHT22;17318;52.390;9.754;2023-05-10T00:19:07;16.50;63.60
30534;DHT22;17318;52.390;9.754;2023-05-10T00:21:32;16.50;63.70
30534;DHT22;17318;52.390;9.754;2023-05-10T00:23:59;16.50;64.30
30534;DHT22;17318;52.390;9.754;2023-05-10T00:26:25;16.40;64.70
30534;DHT22;17318;52.390;9.754;2023-05-10T00:28:51;16.40;64.90
30534;DHT22;17318;52.390;9.754;2023-05-10T00:31:16;16.20;65.30
30534;DHT22;17318;52.390;9.754;2023-05-10T00:33:42;16.30;65.30
30534;DHT22;17318;52.390;9.754;2023-05-10T00:36:08;16.40;64.90
30534;DHT22;17318;52.390;9.754;2023-05-10T00:38:36;16.40;64.90
30534;DHT22;17318;52.390;9.754;2023-05-10T00:41:01;16.40;65.00
30534;DHT22;17318;52.390;9.754;2023-05-10T00:43:27;16.40;65.00
30534;DHT22;17318;52.390;9.754;2023-05-10T00:45:53;16.30;64.90
30534;DHT22;17318;52.390;9.754;2023-05-10T00:48:19;16.20;65.60
30534;DHT22;17318;52.390;9.754;2023-05-10T00:50:45;16.20;65.50
30534;DHT22;17318;52.390;9.754;2023-05-10T00:53:11;16.20;66.30
30534;DHT22;17318;52.390;9.754;2023-05-10T00:55:37;16.30;65.20
30534;DHT22;17318;52.390;9.754;2023-05-10T00:58:03;16.20;65.90
30534;DHT22;17318;52.390;9.754;2023-05-10T01:00:29;16.30;65.80
30534;DHT22;17318;52.390;9.754;2023-05-10T01:02:55;16.10;66.20
30534;DHT22;17318;52.390;9.754;2023-05-10T01:05:21;16.10;66.60
30534;DHT22;17318;52.390;9.754;2023-05-10T01:07:47;16.00;66.50
30534;DHT22;17318;52.390;9.754;2023-05-10T01:10:13;16.20;66.50
30534;DHT22;17318;52.390;9.754;2023-05-10T01:12:41;16.20;66.40
30534;DHT22;17318;52.390;9.754;2023-05-10T01:15:08;16.10;66.50
30534;DHT22;17318;52.390;9.754;2023-05-10T01:17:38;15.80;67.80
30534;DHT22;17318;52.390;9.754;2023-05-10T01:20:05;15.90;67.90
30534;DHT22;17318;52.390;9.754;2023-05-10T01:47:20;15.60;69.70
30534;DHT22;17318;52.390;9.754;2023-05-10T01:49:51;15.60;69.70
30534;DHT22;17318;52.390;9.754;2023-05-10T01:52:21;15.70;69.80
30534;DHT22;17318;52.390;9.754;2023-05-10T01:55:07;15.80;69.70
30534;DHT22;17318;52.390;9.754;2023-05-10T01:57:36;15.80;69.60
30534;DHT22;17318;52.390;9.754;2023-05-10T02:00:03;15.80;69.80
30534;DHT22;17318;52.390;9.754;2023-05-10T02:02:39;15.80;70.10
30534;DHT22;17318;52.390;9.754;2023-05-10T02:05:06;15.60;70.80
30534;DHT22;17318;52.390;9.754;2023-05-10T02:07:37;15.60;70.70
30534;DHT22;17318;52.390;9.754;2023-05-10T02:10:05;15.60;70.70
30534;DHT22;17318;52.390;9.754;2023-05-10T02:12:36;15.60;71.30
30534;DHT22;17318;52.390;9.754;2023-05-10T02:15:05;15.50;71.60
30534;DHT22;17318;52.390;9.754;2023-05-10T02:17:32;15.50;71.60
30534;DHT22;17318;52.390;9.754;2023-05-10T02:20:01;15.50;72.30
30534;DHT22;17318;52.390;9.754;2023-05-10T02:22:27;15.40;72.80
30534;DHT22;17318;52.390;9.754;2023-05-10T02:24:58;15.30;73.30
30534;DHT22;17318;52.390;9.754;2023-05-10T02:27:24;15.30;73.80
30534;DHT22;17318;52.390;9.754;2023-05-10T02:29:51;15.30;73.90
30534;DHT22;17318;52.390;9.754;2023-05-10T02:32:18;15.30;73.70
30534;DHT22;17318;52.390;9.754;2023-05-10T02:34:45;15.30;73.80
30534;DHT22;17318;52.390;9.754;2023-05-10T02:37:15;15.30;73.80
30534;DHT22;17318;52.390;9.754;2023-05-10T02:39:44;15.30;73.90
30534;DHT22;17318;52.390;9.754;2023-05-10T02:42:16;15.30;73.80
30534;DHT22;17318;52.390;9.754;2023-05-10T02:44:45;15.30;74.10
30534;DHT22;17318;52.390;9.754;2023-05-10T02:47:13;15.30;74.50
30534;DHT22;17318;52.390;9.754;2023-05-10T02:49:39;15.20;75.30
30534;DHT22;17318;52.390;9.754;2023-05-10T02:52:05;15.20;75.30
30534;DHT22;17318;52.390;9.754;2023-05-10T02:54:45;15.20;75.70
30534;DHT22;17318;52.390;9.754;2023-05-10T02:57:15;15.20;76.20
30534;DHT22;17318;52.390;9.754;2023-05-10T02:59:44;15.40;75.20
30534;DHT22;17318;52.390;9.754;2023-05-10T03:02:12;15.50;75.30
30534;DHT22;17318;52.390;9.754;2023-05-10T03:04:38;15.40;75.40
30534;DHT22;17318;52.390;9.754;2023-05-10T03:07:04;15.40;76.30
30534;DHT22;17318;52.390;9.754;2023-05-10T03:09:31;15.40;76.60
30534;DHT22;17318;52.390;9.754;2023-05-10T03:12:13;15.40;76.90
30534;DHT22;17318;52.390;9.754;2023-05-10T03:17:41;15.40;77.10
30534;DHT22;17318;52.390;9.754;2023-05-10T03:20:16;15.20;77.90
30534;DHT22;17318;52.390;9.754;2023-05-10T03:23:00;15.30;77.50
30534;DHT22;17318;52.390;9.754;2023-05-10T03:25:28;15.30;79.00
30534;DHT22;17318;52.390;9.754;2023-05-10T03:27:56;15.30;78.90
30534;DHT22;17318;52.390;9.754;2023-05-10T03:30:22;15.30;79.30
30534;DHT22;17318;52.390;9.754;2023-05-10T03:32:49;15.30;81.00
30534;DHT22;17318;52.390;9.754;2023-05-10T03:35:15;15.30;80.70
30534;DHT22;17318;52.390;9.754;2023-05-10T03:37:41;15.40;81.80
30534;DHT22;17318;52.390;9.754;2023-05-10T03:40:07;15.50;81.30
30534;DHT22;17318;52.390;9.754;2023-05-10T03:42:34;15.50;80.80
30534;DHT22;17318;52.390;9.754;2023-05-10T03:44:59;15.40;80.80
30534;DHT22;17318;52.390;9.754;2023-05-10T03:47:25;15.40;80.80
30534;DHT22;17318;52.390;9.754;2023-05-10T03:49:51;15.40;82.00
30534;DHT22;17318;52.390;9.754;2023-05-10T03:52:17;15.40;82.00
30534;DHT22;17318;52.390;9.754;2023-05-10T03:54:43;15.40;82.20
30534;DHT22;17318;52.390;9.754;2023-05-10T03:57:09;15.30;82.20
30534;DHT22;17318;52.390;9.754;2023-05-10T03:59:35;15.30;84.00
30534;DHT22;17318;52.390;9.754;2023-05-10T04:02:00;15.30;85.90
30534;DHT22;17318;52.390;9.754;2023-05-10T04:04:26;15.30;87.50
30534;DHT22;17318;52.390;9.754;2023-05-10T04:06:52;15.30;88.00
30534;DHT22;17318;52.390;9.754;2023-05-10T04:09:20;15.40;87.70
30534;DHT22;17318;52.390;9.754;2023-05-10T04:11:46;15.40;87.50
30534;DHT22;17318;52.390;9.754;2023-05-10T04:14:11;15.40;87.60
30534;DHT22;17318;52.390;9.754;2023-05-10T04:16:37;15.40;89.20
30534;DHT22;17318;52.390;9.754;2023-05-10T04:19:03;15.30;89.70
30534;DHT22;17318;52.390;9.754;2023-05-10T04:21:29;15.20;89.80
30534;DHT22;17318;52.390;9.754;2023-05-10T04:23:54;15.30;90.20
30534;DHT22;17318;52.390;9.754;2023-05-10T04:26:20;15.30;90.70
30534;DHT22;17318;52.390;9.754;2023-05-10T04:28:47;15.30;90.80
30534;DHT22;17318;52.390;9.754;2023-05-10T04:31:13;15.30;91.30
30534;DHT22;17318;52.390;9.754;2023-05-10T04:33:38;15.30;91.50
30534;DHT22;17318;52.390;9.754;2023-05-10T04:36:04;15.30;91.80
30534;DHT22;17318;52.390;9.754;2023-05-10T04:38:30;15.10;92.50
30534;DHT22;17318;52.390;9.754;2023-05-10T04:41:06;15.30;92.30
30534;DHT22;17318;52.390;9.754;2023-05-10T04:43:32;15.10;93.40
30534;DHT22;17318;52.390;9.754;2023-05-10T04:45:58;15.20;93.30
30534;DHT22;17318;52.390;9.754;2023-05-10T04:48:24;15.10;93.20
30534;DHT22;17318;52.390;9.754;2023-05-10T04:50:50;15.10;93.10
30534;DHT22;17318;52.390;9.754;2023-05-10T04:53:16;15.10;94.10
30534;DHT22;17318;52.390;9.754;2023-05-10T04:55:41;15.20;93.50
30534;DHT22;17318;52.390;9.754;2023-05-10T04:58:07;15.30;94.00
30534;DHT22;17318;52.390;9.754;2023-05-10T05:00:34;15.20;93.90
30534;DHT22;17318;52.390;9.754;2023-05-10T05:02:59;15.00;94.40
30534;DHT22;17318;52.390;9.754;2023-05-10T05:05:25;15.00;94.80
30534;DHT22;17318;52.390;9.754;2023-05-10T05:07:51;14.90;95.10
30534;DHT22;17318;52.390;9.754;2023-05-10T05:10:16;14.90;94.80
30534;DHT22;17318;52.390;9.754;2023-05-10T05:12:42;15.00;95.00
30534;DHT22;17318;52.390;9.754;2023-05-10T05:15:08;14.90;95.10
30534;DHT22;17318;52.390;9.754;2023-05-10T05:17:35;14.90;95.70
30534;DHT22;17318;52.390;9.754;2023-05-10T05:20:01;14.90;95.60
30534;DHT22;17318;52.390;9.754;2023-05-10T05:22:27;14.90;95.80
30534;DHT22;17318;52.390;9.754;2023-05-10T05:24:57;14.90;95.90
30534;DHT22;17318;52.390;9.754;2023-05-10T05:27:23;14.80;96.00
30534;DHT22;17318;52.390;9.754;2023-05-10T05:29:53;14.80;96.10
30534;DHT22;17318;52.390;9.754;2023-05-10T05:32:20;14.80;95.80
30534;DHT22;17318;52.390;9.754;2023-05-10T05:34:45;14.80;96.50
30534;DHT22;17318;52.390;9.754;2023-05-10T05:37:19;14.90;97.10
30534;DHT22;17318;52.390;9.754;2023-05-10T05:39:45;14.90;97.20
30534;DHT22;17318;52.390;9.754;2023-05-10T05:42:11;15.00;97.50
30534;DHT22;17318;52.390;9.754;2023-05-10T05:44:37;14.80;97.70
30534;DHT22;17318;52.390;9.754;2023-05-10T05:47:03;14.80;97.90
30534;DHT22;17318;52.390;9.754;2023-05-10T05:49:29;14.90;97.80
30534;DHT22;17318;52.390;9.754;2023-05-10T05:52:02;15.00;97.10
30534;DHT22;17318;52.390;9.754;2023-05-10T05:54:27;15.00;97.20
30534;DHT22;17318;52.390;9.754;2023-05-10T05:56:54;14.90;97.60
30534;DHT22;17318;52.390;9.754;2023-05-10T05:59:21;15.00;97.90
30534;DHT22;17318;52.390;9.754;2023-05-10T06:01:47;14.90;97.90
30534;DHT22;17318;52.390;9.754;2023-05-10T06:04:13;14.90;98.20
30534;DHT22;17318;52.390;9.754;2023-05-10T06:06:38;14.90;98.10
30534;DHT22;17318;52.390;9.754;2023-05-10T06:09:04;14.90;98.30
30534;DHT22;17318;52.390;9.754;2023-05-10T06:11:29;14.90;98.80
30534;DHT22;17318;52.390;9.754;2023-05-10T06:13:58;15.00;98.80
30534;DHT22;17318;52.390;9.754;2023-05-10T06:16:23;14.90;99.20
30534;DHT22;17318;52.390;9.754;2023-05-10T06:18:49;15.00;99.00
30534;DHT22;17318;52.390;9.754;2023-05-10T06:21:15;15.00;99.20
30534;DHT22;17318;52.390;9.754;2023-05-10T06:23:41;15.10;99.60
30534;DHT22;17318;52.390;9.754;2023-05-10T06:26:07;15.20;98.90
30534;DHT22;17318;52.390;9.754;2023-05-10T06:28:33;15.30;99.20
30534;DHT22;17318;52.390;9.754;2023-05-10T06:30:59;15.30;99.10
30534;DHT22;17318;52.390;9.754;2023-05-10T06:33:25;15.20;99.90
30534;DHT22;17318;52.390;9.754;2023-05-10T06:35:51;15.30;99.90
30534;DHT22;17318;52.390;9.754;2023-05-10T06:38:17;15.20;99.90
30534;DHT22;17318;52.390;9.754;2023-05-10T06:40:43;15.30;99.90
30534;DHT22;17318;52.390;9.754;2023-05-10T06:43:09;15.20;99.90
30534;DHT22;17318;52.390;9.754;2023-05-10T06:45:35;15.20;99.90
30534;DHT22;17318;52.390;9.754;2023-05-10T06:48:01;15.20;99.90
30534;DHT22;17318;52.390;9.754;2023-05-10T06:50:26;15.20;99.90
30534;DHT22;17318;52.390;9.754;2023-05-10T06:52:52;15.20;99.90
30534;DHT22;17318;52.390;9.754;2023-05-10T06:55:18;15.20;99.90
30534;DHT22;17318;52.390;9.754;2023-05-10T06:57:44;15.20;99.90
30534;DHT22;17318;52.390;9.754;2023-05-10T07:00:10;15.20;99.90
30534;DHT22;17318;52.390;9.754;2023-05-10T07:02:35;15.20;99.90
30534;DHT22;17318;52.390;9.754;2023-05-10T07:05:01;15.30;99.90
30534;DHT22;17318;52.390;9.754;2023-05-10T07:07:27;15.20;99.90
30534;DHT22;17318;52.390;9.754;2023-05-10T07:13:16;15.30;99.90
30534;DHT22;17318;52.390;9.754;2023-05-10T07:15:41;15.30;99.90
30534;DHT22;17318;52.390;9.754;2023-05-10T07:18:07;15.30;99.90
30534;DHT22;17318;52.390;9.754;2023-05-10T07:20:33;15.30;99.90
30534;DHT22;17318;52.390;9.754;2023-05-10T07:22:58;15.40;99.90
30534;DHT22;17318;52.390;9.754;2023-05-10T07:25:24;15.30;99.90
30534;DHT22;17318;52.390;9.754;2023-05-10T07:27:50;15.30;99.90
30534;DHT22;17318;52.390;9.754;2023-05-10T07:30:16;15.40;99.90
30534;DHT22;17318;52.390;9.754;2023-05-10T07:32:41;15.50;99.90
30534;DHT22;17318;52.390;9.754;2023-05-10T07:35:08;15.50;99.90
30534;DHT22;17318;52.390;9.754;2023-05-10T07:37:35;15.50;99.90
30534;DHT22;17318;52.390;9.754;2023-05-10T07:40:01;15.50;99.90
30534;DHT22;17318;52.390;9.754;2023-05-10T07:42:27;15.50;99.90
30534;DHT22;17318;52.390;9.754;2023-05-10T07:44:53;15.40;99.90
30534;DHT22;17318;52.390;9.754;2023-05-10T07:47:18;15.50;99.90
30534;DHT22;17318;52.390;9.754;2023-05-10T07:49:44;15.50;99.90
30534;DHT22;17318;52.390;9.754;2023-05-10T07:52:11;15.50;99.90
30534;DHT22;17318;52.390;9.754;2023-05-10T07:54:37;15.40;99.90
30534;DHT22;17318;52.390;9.754;2023-05-10T07:57:03;15.40;99.90
30534;DHT22;17318;52.390;9.754;2023-05-10T07:59:28;15.50;99.90
30534;DHT22;17318;52.390;9.754;2023-05-10T08:01:55;15.40;99.90
30534;DHT22;17318;52.390;9.754;2023-05-10T08:04:21;15.50;99.90
30534;DHT22;17318;52.390;9.754;2023-05-10T08:06:47;15.40;99.90
30534;DHT22;17318;52.390;9.754;2023-05-10T08:09:13;15.50;99.90
30534;DHT22;17318;52.390;9.754;2023-05-10T08:11:39;15.50;99.90
30534;DHT22;17318;52.390;9.754;2023-05-10T08:14:04;15.60;99.90
30534;DHT22;17318;52.390;9.754;2023-05-10T08:16:30;15.60;99.90
30534;DHT22;17318;52.390;9.754;2023-05-10T08:18:55;15.60;99.90
30534;DHT22;17318;52.390;9.754;2023-05-10T08:21:21;15.70;99.90
30534;DHT22;17318;52.390;9.754;2023-05-10T08:23:47;15.70;99.90
30534;DHT22;17318;52.390;9.754;2023-05-10T08:26:13;15.70;99.90
30534;DHT22;17318;52.390;9.754;2023-05-10T08:28:38;15.80;99.90
30534;DHT22;17318;52.390;9.754;2023-05-10T08:31:04;15.60;99.90
30534;DHT22;17318;52.390;9.754;2023-05-10T08:33:30;15.50;99.90
30534;DHT22;17318;52.390;9.754;2023-05-10T08:35:56;15.60;99.90
30534;DHT22;17318;52.390;9.754;2023-05-10T08:38:22;15.60;99.90
30534;DHT22;17318;52.390;9.754;2023-05-10T08:40:49;15.60;99.90
30534;DHT22;17318;52.390;9.754;2023-05-10T08:43:16;15.80;99.90
30534;DHT22;17318;52.390;9.754;2023-05-10T08:45:43;15.90;99.90
30534;DHT22;17318;52.390;9.754;2023-05-10T08:48:12;15.90;99.90
30534;DHT22;17318;52.390;9.754;2023-05-10T08:50:39;16.10;99.90
30534;DHT22;17318;52.390;9.754;2023-05-10T08:53:12;16.20;99.90
30534;DHT22;17318;52.390;9.754;2023-05-10T08:55:39;16.10;99.90
30534;DHT22;17318;52.390;9.754;2023-05-10T08:58:06;16.00;99.90
30534;DHT22;17318;52.390;9.754;2023-05-10T09:00:33;16.00;99.90
30534;DHT22;17318;52.390;9.754;2023-05-10T09:02:59;16.10;99.90
30534;DHT22;17318;52.390;9.754;2023-05-10T09:05:25;16.10;99.90
30534;DHT22;17318;52.390;9.754;2023-05-10T09:07:51;16.10;99.90
30534;DHT22;17318;52.390;9.754;2023-05-10T09:10:17;15.80;99.90
30534;DHT22;17318;52.390;9.754;2023-05-10T09:12:44;16.00;99.90
30534;DHT22;17318;52.390;9.754;2023-05-10T09:15:11;15.90;99.90
30534;DHT22;17318;52.390;9.754;2023-05-10T09:17:38;15.80;99.90
30534;DHT22;17318;52.390;9.754;2023-05-10T09:20:05;15.80;99.90
30534;DHT22;17318;52.390;9.754;2023-05-10T09:22:31;16.00;99.90
30534;DHT22;17318;52.390;9.754;2023-05-10T09:25:23;15.90;99.90
30534;DHT22;17318;52.390;9.754;2023-05-10T09:27:50;15.90;99.90
30534;DHT22;17318;52.390;9.754;2023-05-10T09:30:26;15.80;99.90
30534;DHT22;17318;52.390;9.754;2023-05-10T09:32:53;16.00;99.90
30534;DHT22;17318;52.390;9.754;2023-05-10T09:35:21;15.80;99.90
30534;DHT22;17318;52.390;9.754;2023-05-10T09:37:50;15.90;99.90
30534;DHT22;17318;52.390;9.754;2023-05-10T09:40:21;16.10;99.90
30534;DHT22;17318;52.390;9.754;2023-05-10T09:43:01;16.20;99.90
30534;DHT22;17318;52.390;9.754;2023-05-10T09:45:32;16.20;99.90
30534;DHT22;17318;52.390;9.754;2023-05-10T09:47:58;16.30;99.90
30534;DHT22;17318;52.390;9.754;2023-05-10T09:50:24;16.30;99.90
30534;DHT22;17318;52.390;9.754;2023-05-10T09:53:01;16.40;99.90
30534;DHT22;17318;52.390;9.754;2023-05-10T09:58:06;16.50;99.90
30534;DHT22;17318;52.390;9.754;2023-05-10T10:00:39;16.50;99.90
30534;DHT22;17318;52.390;9.754;2023-05-10T10:03:06;16.50;99.90
30534;DHT22;17318;52.390;9.754;2023-05-10T10:05:33;16.60;99.90
30534;DHT22;17318;52.390;9.754;2023-05-10T10:08:00;16.70;99.90
30534;DHT22;17318;52.390;9.754;2023-05-10T10:10:27;16.90;99.90
30534;DHT22;17318;52.390;9.754;2023-05-10T10:12:53;16.90;99.90
30534;DHT22;17318;52.390;9.754;2023-05-10T10:15:23;16.70;99.90
30534;DHT22;17318;52.390;9.754;2023-05-10T10:17:49;16.90;99.90
30534;DHT22;17318;52.390;9.754;2023-05-10T10:20:16;16.90;99.90
30534;DHT22;17318;52.390;9.754;2023-05-10T10:22:42;17.00;99.90
30534;DHT22;17318;52.390;9.754;2023-05-10T10:25:12;17.10;99.90
30534;DHT22;17318;52.390;9.754;2023-05-10T10:33:33;17.00;99.90
30534;DHT22;17318;52.390;9.754;2023-05-10T10:36:02;17.10;99.90
30534;DHT22;17318;52.390;9.754;2023-05-10T10:41:29;17.30;99.90
30534;DHT22;17318;52.390;9.754;2023-05-10T10:47:09;17.30;99.90
30534;DHT22;17318;52.390;9.754;2023-05-10T10:52:24;17.50;99.90
30534;DHT22;17318;52.390;9.754;2023-05-10T10:55:03;17.60;99.90
30534;DHT22;17318;52.390;9.754;2023-05-10T10:57:45;17.70;99.90
30534;DHT22;17318;52.390;9.754;2023-05-10T11:00:26;17.90;99.90
30534;DHT22;17318;52.390;9.754;2023-05-10T11:03:11;17.70;99.90
30534;DHT22;17318;52.390;9.754;2023-05-10T11:05:50;17.60;99.90
30534;DHT22;17318;52.390;9.754;2023-05-10T11:18:39;17.80;99.90
30534;DHT22;17318;52.390;9.754;2023-05-10T11:21:09;17.90;99.90
30534;DHT22;17318;52.390;9.754;2023-05-10T11:26:13;18.10;99.90
30534;DHT22;17318;52.390;9.754;2023-05-10T11:28:46;18.30;99.90
30534;DHT22;17318;52.390;9.754;2023-05-10T11:31:19;18.10;99.90
30534;DHT22;17318;52.390;9.754;2023-05-10T11:33:52;18.30;99.90
30534;DHT22;17318;52.390;9.754;2023-05-10T11:36:28;18.40;99.90
30534;DHT22;17318;52.390;9.754;2023-05-10T11:38:56;18.50;99.90
30534;DHT22;17318;52.390;9.754;2023-05-10T11:41:23;18.70;99.90
30534;DHT22;17318;52.390;9.754;2023-05-10T11:43:51;18.80;99.70
30534;DHT22;17318;52.390;9.754;2023-05-10T11:46:19;18.90;99.40
30534;DHT22;17318;52.390;9.754;2023-05-10T11:48:47;18.70;98.70
30534;DHT22;17318;52.390;9.754;2023-05-10T11:51:14;18.90;98.90
30534;DHT22;17318;52.390;9.754;2023-05-10T11:53:40;19.20;98.90
30534;DHT22;17318;52.390;9.754;2023-05-10T11:56:07;19.50;98.90
30534;DHT22;17318;52.390;9.754;2023-05-10T11:58:34;19.40;97.90
30534;DHT22;17318;52.390;9.754;2023-05-10T12:01:01;19.20;97.80
30534;DHT22;17318;52.390;9.754;2023-05-10T12:03:28;19.50;97.80
30534;DHT22;17318;52.390;9.754;2023-05-10T12:05:57;19.60;97.30
30534;DHT22;17318;52.390;9.754;2023-05-10T12:08:25;19.70;97.00
30534;DHT22;17318;52.390;9.754;2023-05-10T12:10:52;19.70;97.20
30534;DHT22;17318;52.390;9.754;2023-05-10T12:13:19;19.80;97.00
30534;DHT22;17318;52.390;9.754;2023-05-10T12:15:46;20.00;96.50
30534;DHT22;17318;52.390;9.754;2023-05-10T12:18:12;19.90;96.00
30534;DHT22;17318;52.390;9.754;2023-05-10T12:20:39;19.90;96.40
30534;DHT22;17318;52.390;9.754;2023-05-10T12:23:05;20.00;96.30
30534;DHT22;17318;52.390;9.754;2023-05-10T12:25:34;20.00;96.20
30534;DHT22;17318;52.390;9.754;2023-05-10T12:28:04;20.20;95.90
30534;DHT22;17318;52.390;9.754;2023-05-10T12:30:34;20.20;96.10
30534;DHT22;17318;52.390;9.754;2023-05-10T12:33:02;20.30;95.70
30534;DHT22;17318;52.390;9.754;2023-05-10T12:35:32;20.20;95.60
30534;DHT22;17318;52.390;9.754;2023-05-10T12:37:58;20.10;95.70
30534;DHT22;17318;52.390;9.754;2023-05-10T12:40:24;19.90;95.70
30534;DHT22;17318;52.390;9.754;2023-05-10T12:42:50;19.80;95.80
30534;DHT22;17318;52.390;9.754;2023-05-10T12:45:17;19.70;95.90
30534;DHT22;17318;52.390;9.754;2023-05-10T12:47:43;19.80;96.00
30534;DHT22;17318;52.390;9.754;2023-05-10T12:50:09;20.00;95.90
30534;DHT22;17318;52.390;9.754;2023-05-10T12:52:35;20.00;95.80
30534;DHT22;17318;52.390;9.754;2023-05-10T12:55:01;20.10;95.60
30534;DHT22;17318;52.390;9.754;2023-05-10T12:57:27;20.20;95.60
30534;DHT22;17318;52.390;9.754;2023-05-10T12:59:56;20.30;95.70
30534;DHT22;17318;52.390;9.754;2023-05-10T13:02:21;20.10;95.70
30534;DHT22;17318;52.390;9.754;2023-05-10T13:04:48;20.20;95.60
30534;DHT22;17318;52.390;9.754;2023-05-10T13:07:14;20.30;95.70
30534;DHT22;17318;52.390;9.754;2023-05-10T13:09:40;20.30;95.40
30534;DHT22;17318;52.390;9.754;2023-05-10T13:12:06;20.30;95.10
30534;DHT22;17318;52.390;9.754;2023-05-10T13:14:31;20.30;95.50
30534;DHT22;17318;52.390;9.754;2023-05-10T13:16:57;20.30;95.50
30534;DHT22;17318;52.390;9.754;2023-05-10T13:19:25;20.40;95.40
30534;DHT22;17318;52.390;9.754;2023-05-10T13:21:51;20.40;95.20
30534;DHT22;17318;52.390;9.754;2023-05-10T13:24:16;20.50;95.10
30534;DHT22;17318;52.390;9.754;2023-05-10T13:26:43;20.30;95.00
30534;DHT22;17318;52.390;9.754;2023-05-10T13:29:09;20.40;95.20
30534;DHT22;17318;52.390;9.754;2023-05-10T13:31:34;20.40;95.20
30534;DHT22;17318;52.390;9.754;2023-05-10T13:34:01;20.30;95.20
30534;DHT22;17318;52.390;9.754;2023-05-10T13:36:28;20.40;95.30
30534;DHT22;17318;52.390;9.754;2023-05-10T13:38:53;20.40;94.70
30534;DHT22;17318;52.390;9.754;2023-05-10T13:41:19;20.40;94.50
30534;DHT22;17318;52.390;9.754;2023-05-10T13:43:45;20.60;94.50
30534;DHT22;17318;52.390;9.754;2023-05-10T13:46:11;20.60;94.70
30534;DHT22;17318;52.390;9.754;2023-05-10T13:48:36;20.50;94.70
30534;DHT22;17318;52.390;9.754;2023-05-10T13:51:03;20.50;94.60
30534;DHT22;17318;52.390;9.754;2023-05-10T13:53:29;20.50;94.60
30534;DHT22;17318;52.390;9.754;2023-05-10T13:55:54;20.40;94.60
30534;DHT22;17318;52.390;9.754;2023-05-10T13:58:20;20.20;94.50
30534;DHT22;17318;52.390;9.754;2023-05-10T14:00:46;20.00;94.80
30534;DHT22;17318;52.390;9.754;2023-05-10T14:03:11;20.20;95.00
30534;DHT22;17318;52.390;9.754;2023-05-10T14:05:37;20.10;95.30
30534;DHT22;17318;52.390;9.754;2023-05-10T14:08:03;20.10;95.10
30534;DHT22;17318;52.390;9.754;2023-05-10T14:10:29;20.00;95.10
30534;DHT22;17318;52.390;9.754;2023-05-10T14:12:55;19.90;95.10
30534;DHT22;17318;52.390;9.754;2023-05-10T14:15:21;19.70;95.30
30534;DHT22;17318;52.390;9.754;2023-05-10T14:17:47;19.60;95.40
30534;DHT22;17318;52.390;9.754;2023-05-10T14:20:13;19.50;95.60
30534;DHT22;17318;52.390;9.754;2023-05-10T14:22:38;19.50;95.70
30534;DHT22;17318;52.390;9.754;2023-05-10T14:25:05;19.40;95.80
30534;DHT22;17318;52.390;9.754;2023-05-10T14:27:32;19.30;96.00
30534;DHT22;17318;52.390;9.754;2023-05-10T14:29:57;19.30;96.40
30534;DHT22;17318;52.390;9.754;2023-05-10T14:32:23;19.20;96.60
30534;DHT22;17318;52.390;9.754;2023-05-10T14:34:49;19.20;96.80
30534;DHT22;17318;52.390;9.754;2023-05-10T14:37:15;19.10;97.00
30534;DHT22;17318;52.390;9.754;2023-05-10T14:39:41;19.10;97.10
30534;DHT22;17318;52.390;9.754;2023-05-10T14:42:08;19.00;97.20
30534;DHT22;17318;52.390;9.754;2023-05-10T14:44:34;19.10;97.40
30534;DHT22;17318;52.390;9.754;2023-05-10T14:46:59;19.10;97.40
30534;DHT22;17318;52.390;9.754;2023-05-10T14:49:25;19.10;97.40
30534;DHT22;17318;52.390;9.754;2023-05-10T14:51:51;19.10;97.50
30534;DHT22;17318;52.390;9.754;2023-05-10T14:54:17;19.10;97.50
30534;DHT22;17318;52.390;9.754;2023-05-10T14:56:43;19.10;97.40
30534;DHT22;17318;52.390;9.754;2023-05-10T14:59:09;19.10;97.50
30534;DHT22;17318;52.390;9.754;2023-05-10T15:01:34;19.10;97.60
30534;DHT22;17318;52.390;9.754;2023-05-10T15:04:03;19.10;97.70
30534;DHT22;17318;52.390;9.754;2023-05-10T15:06:33;19.10;97.80
30534;DHT22;17318;52.390;9.754;2023-05-10T15:09:00;19.10;97.80
30534;DHT22;17318;52.390;9.754;2023-05-10T15:11:26;19.20;98.00
30534;DHT22;17318;52.390;9.754;2023-05-10T15:13:53;19.20;98.00
30534;DHT22;17318;52.390;9.754;2023-05-10T15:16:18;19.20;98.00
30534;DHT22;17318;52.390;9.754;2023-05-10T15:18:44;19.30;98.00
30534;DHT22;17318;52.390;9.754;2023-05-10T15:21:11;19.30;98.00
30534;DHT22;17318;52.390;9.754;2023-05-10T15:23:36;19.30;97.90
30534;DHT22;17318;52.390;9.754;2023-05-10T15:26:02;19.30;98.00
30534;DHT22;17318;52.390;9.754;2023-05-10T15:28:28;19.30;98.00
30534;DHT22;17318;52.390;9.754;2023-05-10T15:30:55;19.20;98.00
30534;DHT22;17318;52.390;9.754;2023-05-10T15:33:21;19.30;98.00
30534;DHT22;17318;52.390;9.754;2023-05-10T15:35:47;19.30;98.20
30534;DHT22;17318;52.390;9.754;2023-05-10T15:38:13;19.30;98.10
30534;DHT22;17318;52.390;9.754;2023-05-10T15:40:39;19.30;98.10
30534;DHT22;17318;52.390;9.754;2023-05-10T15:43:05;19.20;98.10
30534;DHT22;17318;52.390;9.754;2023-05-10T15:45:30;19.20;98.20
30534;DHT22;17318;52.390;9.754;2023-05-10T15:47:57;19.20;98.30
30534;DHT22;17318;52.390;9.754;2023-05-10T15:50:23;19.20;98.40
30534;DHT22;17318;52.390;9.754;2023-05-10T15:52:48;19.20;98.50
30534;DHT22;17318;52.390;9.754;2023-05-10T15:55:14;19.20;98.50
30534;DHT22;17318;52.390;9.754;2023-05-10T15:57:40;19.20;98.50
30534;DHT22;17318;52.390;9.754;2023-05-10T16:00:11;19.20;98.50
30534;DHT22;17318;52.390;9.754;2023-05-10T16:02:37;19.10;98.80
30534;DHT22;17318;52.390;9.754;2023-05-10T16:05:03;19.10;99.20
30534;DHT22;17318;52.390;9.754;2023-05-10T16:07:29;19.10;99.30
30534;DHT22;17318;52.390;9.754;2023-05-10T16:09:55;19.00;99.50
30534;DHT22;17318;52.390;9.754;2023-05-10T16:12:21;18.90;99.90
30534;DHT22;17318;52.390;9.754;2023-05-10T16:14:47;18.90;99.90
30534;DHT22;17318;52.390;9.754;2023-05-10T16:17:12;18.80;99.90
30534;DHT22;17318;52.390;9.754;2023-05-10T16:19:39;18.70;99.90
30534;DHT22;17318;52.390;9.754;2023-05-10T16:22:06;18.60;99.90
30534;DHT22;17318;52.390;9.754;2023-05-10T16:24:32;18.40;99.90
30534;DHT22;17318;52.390;9.754;2023-05-10T16:26:57;18.30;99.90
30534;DHT22;17318;52.390;9.754;2023-05-10T16:29:23;18.20;99.90
30534;DHT22;17318;52.390;9.754;2023-05-10T16:31:49;18.20;99.90